createdAt,value
2023-03-15T00:01:46.851Z,6.25
2023-03-15T00:16:48.842Z,6.38
2023-03-15T00:31:51.720Z,5.56
2023-03-15T00:46:53.471Z,5.61
2023-03-15T01:01:55.419Z,6.60
2023-03-15T01:16:57.207Z,5.60
2023-03-15T01:31:58.891Z,6.17
2023-03-15T01:47:00.632Z,6.33
2023-03-15T02:02:05.233Z,5.40
2023-03-15T02:17:07.106Z,5.50
2023-03-15T02:32:09.263Z,5.40
2023-03-15T02:47:15.973Z,5.53
2023-03-15T03:02:18.286Z,6.15
2023-03-15T03:17:19.968Z,5.05
2023-03-15T03:32:22.162Z,5.94
2023-03-15T03:47:23.896Z,5.12
2023-03-15T04:02:25.712Z,4.88
2023-03-15T04:17:27.355Z,5.26
2023-03-15T04:32:29.090Z,6.05
2023-03-15T04:47:31.358Z,5.69
2023-03-15T05:02:33.168Z,4.41
2023-03-15T05:17:34.844Z,4.63
2023-03-15T05:32:39.592Z,6.39
2023-03-15T06:08:53.435Z,6.28
2023-03-15T06:23:55.244Z,5.19
2023-03-15T06:38:56.980Z,7.59
2023-03-15T06:53:59.716Z,6.87
2023-03-15T07:09:03.431Z,7.79
2023-03-15T07:24:05.458Z,8.19
2023-03-15T07:39:07.161Z,8.78
2023-03-15T07:54:09.029Z,8.49
2023-03-15T08:09:12.094Z,8.32
2023-03-15T08:24:14.492Z,9.90
2023-03-15T08:39:16.328Z,10.22
2023-03-15T08:54:18.065Z,8.88
2023-03-15T09:09:19.772Z,8.93
2023-03-15T09:24:21.379Z,9.24
2023-03-15T09:39:23.542Z,7.85
2023-03-15T09:54:32.311Z,9.53
2023-03-15T10:09:34.992Z,10.59
2023-03-15T10:24:46.109Z,10.46
2023-03-15T10:39:49.728Z,10.84
2023-03-15T10:54:58.817Z,10.50
2023-03-15T11:10:07.191Z,10.46
2023-03-15T11:25:16.953Z,9.67
2023-03-15T11:40:33.576Z,9.99
2023-03-15T11:55:35.505Z,10.59
2023-03-15T12:10:46.540Z,10.33
2023-03-15T12:25:56.025Z,10.89
2023-03-15T12:40:58.807Z,9.96
2023-03-15T12:56:32.776Z,10.76
2023-03-15T13:11:43.404Z,10.96
2023-03-15T13:27:09.702Z,11.15
2023-03-15T13:42:20.858Z,11.19
2023-03-15T17:24:14.086Z,9.50
2023-03-15T17:39:17.217Z,8.54
2023-03-15T17:54:20.363Z,9.62
2023-03-15T18:09:23.940Z,9.51
2023-03-15T18:24:25.721Z,9.11
2023-03-15T18:39:27.541Z,7.37
2023-03-15T18:54:29.209Z,7.24
2023-03-15T19:09:30.908Z,8.09
2023-03-15T19:24:33.248Z,8.26
2023-03-15T19:39:35.077Z,8.72
2023-03-15T19:54:36.885Z,7.42
2023-03-15T20:09:40.926Z,8.61
2023-03-15T20:24:44.288Z,6.30
2023-03-15T20:39:47.009Z,7.47
2023-03-15T20:54:48.801Z,8.49
2023-03-15T21:09:50.572Z,6.22
2023-03-15T21:24:55.935Z,4.99
2023-03-15T21:39:58.069Z,5.20
2023-03-15T21:54:59.821Z,4.72
2023-03-15T22:10:01.805Z,6.09
2023-03-15T22:25:03.565Z,5.63
2023-03-15T22:40:06.518Z,5.86
2023-03-15T22:55:09.391Z,6.11
2023-03-15T23:10:12.306Z,5.75
2023-03-15T23:25:16.354Z,5.74
2023-03-15T23:40:19.539Z,4.41
2023-03-15T23:55:22.658Z,5.18
